首页
METAR-TAF:

METAR-TAF

机场 :

維也納國際機場

維也納, 奥地利

纬度: 48-07N, 经度: 016-34E, 海拔: 183米

当前天气观测

该预报发布于30分钟前的08:20 UTC
风速15节,风向东转东南
温度 12°C
湿度 62%
气压 1012 hPa
能见度10公里或以上
少量云层高于2800英尺
多云层高于8700英尺

METAR: LOWW 230820Z 12015KT 9999 FEW028 BKN087 12/05 Q1012 NOSIG

时间: 10:50 (08:50 UTC)

预报

该预报发布于35分钟前的08:15 UTC
预报有效从23日的 09点(UTC)到 24日的 15点(UTC)
风速14节,风向东转东南
能见度10公里或以上
少量云层高于2500英尺
多云层高于5000英尺
短暂存在
从 23日的 09点(UTC)到 23日的 21点(UTC)
风速22节,风向东南
多云层高于2500英尺
小雨
短暂存在
从 23日的 21点(UTC)到 24日的 10点(UTC)
风速17节,风向东南
散云层高于5000英尺
从 24日的 1000点(UTC)
风速20节,风向南转南东
能见度10公里或以上
1500米以下无云,无积雨云
短暂存在
从 24日的 12点(UTC)到 24日的 15点(UTC)
风速23节,风向,有时为35节阵风

TAF: LOWW 230815Z 2309/2415 12014KT 9999 FEW025 BKN050 TX23/2415Z TN10/2320Z TEMPO 2309/2321 14022KT -RA BKN025 TEMPO 2321/2410 14017KT SCT050 FM241000 16020KT CAVOK TEMPO 2412/2415 17023G35KT

超过4000个机场的气象观测和天气预报(METAR&TAF报告)。

可查询的气象台以黄色和红色小点在地图上表示。

将鼠标移到小点上方,可查看气象台名称。

然后点击查看天气观测和预报。

如需切换地图:点击带黑十字的绿色按钮放大地图;点击带横线的绿色按钮缩小地图;或者点击绿色箭头查看邻近地区的地图。


METAR-TAF: